Time;durP1;ratioP1;P1;durP2;ratioP2;P2;SDS_P1;SDS_P2;PMS_P1;PMS_P2;Temp;Humidity;BMP_temperature;BMP_pressure;BME280_temperature;BME280_humidity;BME280_pressure;Samples;Min_cycle;Max_cycle;Signal;HPM_P1;HPM_P2
2023/07/13 00:01:31;;;;;;;2.22;0.88;;;;;;;20.87;71.53;100098.84;5087526;28;20032;-65
2023/07/13 00:03:57;;;;;;;1.42;0.85;;;;;;;20.83;70.52;100091.97;5088177;28;20129;-64
2023/07/13 00:06:22;;;;;;;2.28;1.00;;;;;;;20.80;71.95;100089.50;5087953;28;20020;-64
2023/07/13 00:08:49;;;;;;;2.15;0.82;;;;;;;20.84;72.09;100099.09;5088181;28;20692;-65
2023/07/13 00:11:16;;;;;;;4.18;1.02;;;;;;;20.82;72.43;100089.38;5086714;28;20031;-65
2023/07/13 00:13:42;;;;;;;2.15;1.00;;;;;;;20.77;73.13;100086.97;5088830;28;20085;-64
2023/07/13 00:16:09;;;;;;;2.40;1.00;;;;;;;20.75;72.78;100088.97;5089374;28;20028;-65
2023/07/13 00:18:34;;;;;;;1.63;0.82;;;;;;;20.70;71.88;100093.84;5092557;28;20096;-63
2023/07/13 00:21:04;;;;;;;9.52;1.20;;;;;;;20.74;72.96;100097.19;5091389;28;20020;-63
2023/07/13 00:23:33;;;;;;;3.13;1.23;;;;;;;20.74;73.63;100092.63;5087823;28;20027;-63
2023/07/13 00:26:00;;;;;;;2.50;1.05;;;;;;;20.68;73.66;100100.31;5091311;28;20074;-64
2023/07/13 00:28:25;;;;;;;1.52;0.93;;;;;;;20.57;74.41;100095.69;5090566;28;20089;-64
2023/07/13 00:30:50;;;;;;;2.88;0.82;;;;;;;20.46;75.47;100097.44;5089317;28;20043;-64
2023/07/13 00:33:16;;;;;;;5.18;1.20;;;;;;;20.37;76.67;100098.09;5089617;28;20024;-64
2023/07/13 00:35:43;;;;;;;3.50;1.30;;;;;;;20.30;77.47;100102.19;5089330;28;20037;-64
2023/07/13 00:38:09;;;;;;;3.00;1.17;;;;;;;20.19;78.55;100111.06;5090598;28;20077;-64
2023/07/13 00:40:34;;;;;;;1.83;1.30;;;;;;;20.08;78.79;100108.22;5089755;28;20040;-64
2023/07/13 00:43:00;;;;;;;2.80;1.10;;;;;;;20.04;79.71;100112.09;5091614;28;20051;-64
2023/07/13 00:45:25;;;;;;;2.05;0.95;;;;;;;19.99;80.70;100102.59;5087750;28;20103;-63
2023/07/13 00:47:51;;;;;;;3.47;1.10;;;;;;;19.91;80.73;100104.97;5086315;28;20032;-64
2023/07/13 00:50:19;;;;;;;1.43;1.10;;;;;;;19.84;80.88;100103.66;5092413;28;20062;-65
2023/07/13 00:52:47;;;;;;;1.98;0.98;;;;;;;19.79;81.11;100097.69;5088386;28;20024;-64
2023/07/13 00:55:15;;;;;;;2.42;1.10;;;;;;;19.72;81.19;100099.97;5092230;28;20046;-64
2023/07/13 00:57:41;;;;;;;2.55;1.20;;;;;;;19.67;81.56;100097.56;5092353;28;20026;-65
2023/07/13 01:00:38;;;;;;;1.98;0.95;;;;;;;19.59;81.81;100099.94;5091296;28;20019;-65
2023/07/13 01:03:04;;;;;;;3.78;1.08;;;;;;;19.53;82.98;100094.09;5072497;28;20076;-67
2023/07/13 01:05:32;;;;;;;3.83;1.20;;;;;;;19.48;83.51;100093.53;5072010;28;20028;-68
2023/07/13 01:08:00;;;;;;;2.67;1.17;;;;;;;19.41;83.90;100094.91;5083835;28;20040;-67
2023/07/13 01:10:26;;;;;;;2.35;1.20;;;;;;;19.38;84.49;100089.72;5090985;28;20111;-68
2023/07/13 01:12:53;;;;;;;2.25;0.90;;;;;;;19.34;85.02;100088.22;5092078;28;20413;-67
2023/07/13 01:15:40;;;;;;;3.67;1.10;;;;;;;19.26;85.25;100090.50;5091986;28;20093;-67
2023/07/13 01:18:09;;;;;;;2.00;1.08;;;;;;;19.24;85.84;100095.16;5090627;28;20024;-68
2023/07/13 01:20:36;;;;;;;4.28;1.23;;;;;;;19.14;86.28;100085.97;5090178;28;20024;-68
2023/07/13 01:23:10;;;;;;;3.70;1.25;;;;;;;19.07;87.16;100080.09;5089086;28;20108;-67
2023/07/13 01:25:36;;;;;;;9.43;1.50;;;;;;;19.06;86.96;100088.31;5088915;28;20743;-67
2023/07/13 01:28:03;;;;;;;3.13;1.35;;;;;;;19.01;87.98;100087.75;5088089;28;20120;-67
2023/07/13 01:30:29;;;;;;;3.40;1.50;;;;;;;18.95;88.30;100090.81;5088064;28;20046;-67
2023/07/13 01:32:55;;;;;;;4.93;1.27;;;;;;;18.91;88.86;100100.09;5087851;28;20586;-67
2023/07/13 01:35:20;;;;;;;3.95;1.02;;;;;;;18.87;89.10;100093.16;5089399;28;20020;-67
2023/07/13 01:37:46;;;;;;;2.72;1.50;;;;;;;18.88;89.72;100094.91;5089150;28;20490;-67
2023/07/13 01:40:12;;;;;;;2.85;1.25;;;;;;;18.89;90.08;100102.00;5079492;28;20662;-68
2023/07/13 01:42:39;;;;;;;2.80;1.20;;;;;;;18.86;90.48;100107.59;5087191;28;20615;-67
2023/07/13 01:45:04;;;;;;;5.80;1.40;;;;;;;18.85;90.81;100105.84;5091395;28;20035;-67
2023/07/13 01:47:30;;;;;;;3.88;1.35;;;;;;;18.82;90.43;100101.53;5090290;28;20024;-67
2023/07/13 01:49:56;;;;;;;2.08;1.42;;;;;;;18.78;91.17;100091.06;5091145;28;20375;-67
2023/07/13 01:52:22;;;;;;;5.38;1.33;;;;;;;18.72;91.06;100092.31;5090925;28;20039;-67
2023/07/13 01:54:47;;;;;;;4.00;1.65;;;;;;;18.66;91.61;100084.63;5088271;28;20027;-67
2023/07/13 01:57:13;;;;;;;2.10;1.23;;;;;;;18.71;91.77;100089.72;5089234;28;20137;-68
2023/07/13 01:59:38;;;;;;;2.75;1.30;;;;;;;18.67;91.81;100086.34;5089120;28;20020;-68
2023/07/13 02:02:04;;;;;;;3.35;1.40;;;;;;;18.62;91.69;100088.47;5084556;28;20032;-67
2023/07/13 02:04:29;;;;;;;3.45;1.33;;;;;;;18.59;92.14;100098.59;5071856;28;20044;-67
2023/07/13 02:06:55;;;;;;;7.82;1.75;;;;;;;18.46;91.76;100086.88;5089449;28;20040;-67
2023/07/13 02:09:21;;;;;;;4.25;1.50;;;;;;;18.26;92.33;100080.88;5089781;28;20460;-67
2023/07/13 02:11:46;;;;;;;5.88;1.83;;;;;;;18.17;92.60;100081.44;5089397;28;20032;-67
2023/07/13 02:14:11;;;;;;;5.15;1.48;;;;;;;18.13;92.83;100074.53;5086486;28;20024;-68
2023/07/13 02:16:37;;;;;;;3.55;1.55;;;;;;;18.11;93.35;100083.66;5088263;28;20022;-67
2023/07/13 02:19:03;;;;;;;5.60;1.60;;;;;;;18.12;93.31;100080.03;5089333;28;20487;-67
2023/07/13 02:21:28;;;;;;;5.55;1.80;;;;;;;18.10;93.86;100080.09;5088499;28;20020;-67
2023/07/13 02:23:54;;;;;;;4.53;1.70;;;;;;;18.06;93.88;100081.25;5088159;28;20110;-67
2023/07/13 02:26:20;;;;;;;3.83;1.98;;;;;;;18.01;93.61;100080.69;5088692;28;20032;-67
2023/07/13 02:28:45;;;;;;;3.75;1.88;;;;;;;17.98;93.62;100080.88;5087591;28;20036;-67
2023/07/13 02:31:14;;;;;;;5.65;1.95;;;;;;;17.95;93.50;100085.56;5087861;28;20024;-67
2023/07/13 02:33:40;;;;;;;5.40;1.70;;;;;;;17.91;93.40;100084.91;5088203;28;20028;-67
2023/07/13 02:36:06;;;;;;;3.58;1.55;;;;;;;17.89;93.59;100088.66;5088244;28;20059;-68
2023/07/13 02:38:36;;;;;;;5.07;1.40;;;;;;;17.86;94.20;100081.63;5090264;28;20020;-68
2023/07/13 02:41:05;;;;;;;3.50;1.52;;;;;;;17.87;93.72;100075.28;5089975;28;20103;-68
2023/07/13 02:43:30;;;;;;;3.22;1.80;;;;;;;17.84;93.70;100077.31;5089571;28;20023;-68
2023/07/13 02:45:56;;;;;;;5.38;1.70;;;;;;;17.80;93.53;100082.00;5089866;28;20479;-68
2023/07/13 02:48:21;;;;;;;4.40;2.50;;;;;;;17.78;93.97;100078.53;5090265;28;20027;-68
2023/07/13 02:50:47;;;;;;;3.72;1.60;;;;;;;17.77;94.12;100081.31;5085753;28;20024;-67
2023/07/13 02:53:12;;;;;;;4.00;1.50;;;;;;;17.71;94.50;100087.94;5090126;28;20031;-67
2023/07/13 02:55:39;;;;;;;4.82;1.70;;;;;;;17.62;94.56;100088.50;5088710;28;20027;-68
2023/07/13 02:58:05;;;;;;;4.20;1.67;;;;;;;17.60;94.89;100082.34;5090210;28;20696;-67
2023/07/13 03:00:31;;;;;;;8.55;1.92;;;;;;;17.60;95.23;100084.16;5089237;28;20460;-68
2023/07/13 03:02:57;;;;;;;6.72;1.60;;;;;;;17.55;95.32;100081.75;5088877;28;20050;-67
2023/07/13 03:05:23;;;;;;;3.58;1.52;;;;;;;17.58;95.52;100092.31;5088584;28;20045;-68
2023/07/13 03:07:49;;;;;;;5.93;1.70;;;;;;;17.53;95.94;100089.03;5088356;28;20511;-67
2023/07/13 03:10:14;;;;;;;2.25;1.38;;;;;;;17.51;95.93;100085.56;5088794;28;20020;-68
2023/07/13 03:12:40;;;;;;;4.63;1.88;;;;;;;17.50;95.81;100083.84;5087281;28;20101;-67
2023/07/13 03:15:05;;;;;;;6.25;1.60;;;;;;;17.47;96.12;100100.16;5087441;28;20050;-67
2023/07/13 03:17:31;;;;;;;21.42;3.17;;;;;;;17.41;96.19;100089.75;5085772;28;20102;-67
2023/07/13 03:19:57;;;;;;;5.32;1.80;;;;;;;17.42;96.32;100088.78;5087602;28;20038;-66
2023/07/13 03:22:22;;;;;;;3.78;1.50;;;;;;;17.48;96.57;100091.13;5087574;28;20020;-67
2023/07/13 03:24:48;;;;;;;5.95;1.98;;;;;;;17.49;96.62;100092.88;5087486;28;20020;-67
2023/07/13 03:27:14;;;;;;;4.50;1.30;;;;;;;17.45;96.88;100088.63;5087087;28;20523;-66
2023/07/13 03:29:40;;;;;;;3.22;2.00;;;;;;;17.44;96.48;100111.06;5088440;28;20513;-67
2023/07/13 03:32:06;;;;;;;5.20;2.63;;;;;;;17.32;96.38;100101.03;5088716;28;20337;-67
2023/07/13 03:34:32;;;;;;;4.70;1.77;;;;;;;17.28;96.92;100109.38;5089046;28;20016;-67
2023/07/13 03:36:58;;;;;;;2.72;1.50;;;;;;;17.28;96.82;100120.13;5078934;28;20541;-66
2023/07/13 03:39:23;;;;;;;3.10;1.60;;;;;;;17.28;96.85;100120.97;5088860;28;20027;-67
2023/07/13 03:41:49;;;;;;;3.10;1.63;;;;;;;17.23;96.98;100119.53;5088584;28;20032;-67
2023/07/13 03:44:17;;;;;;;6.70;1.80;;;;;;;17.07;97.25;100095.34;5086609;28;20043;-66
2023/07/13 03:46:42;;;;;;;6.47;1.90;;;;;;;17.24;97.42;100118.56;5086864;28;20416;-66
2023/07/13 03:49:08;;;;;;;4.40;1.80;;;;;;;17.26;96.99;100127.41;5085077;28;20028;-67
2023/07/13 03:51:33;;;;;;;3.47;2.15;;;;;;;17.27;97.52;100129.13;5087314;28;20035;-66
2023/07/13 03:53:59;;;;;;;3.22;1.73;;;;;;;17.29;97.15;100130.78;5090750;28;20038;-67
2023/07/13 03:56:24;;;;;;;3.03;1.52;;;;;;;17.29;97.07;100128.09;5092184;28;20028;-67
2023/07/13 03:58:50;;;;;;;5.10;1.80;;;;;;;17.29;97.52;100129.91;5091831;28;20685;-66
2023/07/13 04:01:18;;;;;;;4.30;1.65;;;;;;;17.28;97.08;100128.19;5087324;28;20028;-67
2023/07/13 04:03:44;;;;;;;3.60;1.92;;;;;;;17.25;97.70;100126.53;5080595;28;20131;-66
2023/07/13 04:06:20;;;;;;;4.43;2.30;;;;;;;17.31;97.71;100125.31;5070894;28;20029;-67
2023/07/13 04:08:49;;;;;;;4.75;1.98;;;;;;;17.38;97.99;100122.16;5068091;28;20097;-67
2023/07/13 04:11:14;;;;;;;9.68;2.70;;;;;;;17.46;98.33;100124.47;5071018;28;20035;-67
2023/07/13 04:13:39;;;;;;;4.38;1.95;;;;;;;17.53;98.01;100121.31;5070622;28;20377;-66
2023/07/13 04:16:05;;;;;;;3.30;1.50;;;;;;;17.58;97.60;100124.59;5070367;28;20021;-66
2023/07/13 04:18:30;;;;;;;3.13;1.67;;;;;;;17.62;97.56;100130.66;5070058;28;20020;-67
2023/07/13 04:20:56;;;;;;;3.97;2.00;;;;;;;17.66;97.01;100133.06;5070174;28;20033;-67
2023/07/13 04:23:21;;;;;;;5.20;2.05;;;;;;;17.71;96.96;100140.91;5069553;28;20028;-66
2023/07/13 04:25:52;;;;;;;3.28;1.75;;;;;;;17.67;96.14;100150.09;5069829;28;20039;-66
2023/07/13 04:28:22;;;;;;;3.80;1.60;;;;;;;17.58;96.19;100156.88;5070952;28;20464;-67
2023/07/13 04:30:47;;;;;;;3.15;1.50;;;;;;;17.48;95.94;100161.06;5071478;28;20024;-67
2023/07/13 04:33:13;;;;;;;4.38;1.50;;;;;;;17.36;96.36;100152.81;5072200;28;20029;-66
2023/07/13 04:35:38;;;;;;;4.20;1.60;;;;;;;17.39;96.39;100156.19;5061589;28;20457;-66
2023/07/13 04:38:04;;;;;;;4.72;1.80;;;;;;;17.42;97.04;100161.38;5072134;28;20035;-66
2023/07/13 04:40:30;;;;;;;2.53;1.80;;;;;;;17.50;97.23;100160.97;5072207;28;20028;-66
2023/07/13 04:42:55;;;;;;;3.78;1.63;;;;;;;17.58;97.37;100167.63;5071729;28;20024;-67
2023/07/13 04:45:21;;;;;;;6.47;2.10;;;;;;;17.63;97.35;100162.84;5072318;28;20021;-67
2023/07/13 04:47:47;;;;;;;8.15;2.08;;;;;;;17.72;97.12;100159.63;5068258;28;20032;-67
2023/07/13 04:50:18;;;;;;;4.35;1.75;;;;;;;17.85;96.79;100160.63;5068732;28;20059;-67
2023/07/13 04:52:44;;;;;;;6.32;2.08;;;;;;;17.98;96.12;100161.63;5071388;28;20028;-67
2023/07/13 04:55:09;;;;;;;4.57;1.90;;;;;;;18.10;95.79;100170.78;5069728;28;20028;-67
2023/07/13 04:57:34;;;;;;;4.22;1.70;;;;;;;18.19;95.32;100165.69;5070657;28;20024;-66
2023/07/13 05:00:01;;;;;;;6.03;1.70;;;;;;;18.23;94.67;100172.63;5069531;28;20024;-67
2023/07/13 05:02:28;;;;;;;4.07;2.28;;;;;;;18.28;94.44;100167.84;5061883;28;20028;-66
2023/07/13 05:04:53;;;;;;;5.22;1.75;;;;;;;18.30;94.24;100163.19;5070485;28;20028;-66
2023/07/13 05:07:19;;;;;;;3.47;1.58;;;;;;;18.34;94.28;100169.28;5086679;28;20032;-67
2023/07/13 05:09:44;;;;;;;4.20;1.85;;;;;;;18.38;94.63;100165.44;5091289;28;20024;-67
2023/07/13 05:12:09;;;;;;;5.70;1.55;;;;;;;18.45;95.14;100171.34;5089088;28;20035;-67
2023/07/13 05:14:35;;;;;;;3.15;1.50;;;;;;;18.52;94.94;100172.69;5090596;28;20627;-66
2023/07/13 05:17:01;;;;;;;2.13;1.25;;;;;;;18.58;95.18;100175.00;5090069;28;20020;-67
2023/07/13 05:19:26;;;;;;;7.32;2.30;;;;;;;18.57;94.91;100175.94;5089866;28;20677;-67
2023/07/13 05:21:52;;;;;;;4.00;2.00;;;;;;;18.59;96.39;100182.97;5090482;28;20020;-67
2023/07/13 05:24:18;;;;;;;5.18;2.05;;;;;;;18.81;96.63;100177.09;5089519;28;20647;-67
2023/07/13 05:26:43;;;;;;;4.38;2.20;;;;;;;18.94;95.59;100180.75;5091109;28;20024;-67
2023/07/13 05:29:09;;;;;;;5.70;2.53;;;;;;;19.06;94.44;100193.47;5090793;28;20028;-67
2023/07/13 05:31:34;;;;;;;5.55;2.30;;;;;;;19.15;93.70;100193.72;5090260;28;20027;-66
2023/07/13 05:33:59;;;;;;;12.00;2.38;;;;;;;19.19;93.12;100191.69;5091111;28;20511;-67
2023/07/13 05:36:25;;;;;;;3.85;2.05;;;;;;;19.34;91.80;100196.97;5080788;28;20115;-67
2023/07/13 05:38:50;;;;;;;5.28;2.47;;;;;;;19.45;90.86;100197.16;5074551;28;20161;-67
2023/07/13 05:41:16;;;;;;;5.28;2.28;;;;;;;19.61;90.19;100197.00;5083524;28;20567;-67
2023/07/13 05:43:41;;;;;;;9.05;2.70;;;;;;;19.76;89.24;100209.47;5083964;28;20024;-67
2023/07/13 05:46:06;;;;;;;7.97;3.55;;;;;;;19.87;87.15;100214.16;5076776;28;20643;-66
2023/07/13 05:48:32;;;;;;;5.60;2.42;;;;;;;19.92;86.57;100209.31;5083580;28;20150;-67
2023/07/13 05:50:58;;;;;;;5.28;2.50;;;;;;;20.07;85.72;100209.13;5079858;28;20036;-66
2023/07/13 05:53:23;;;;;;;4.30;2.15;;;;;;;20.20;84.98;100214.56;5075443;28;20063;-67
2023/07/13 05:55:52;;;;;;;5.20;2.10;;;;;;;20.36;84.75;100215.25;5088826;28;20032;-67
2023/07/13 05:58:18;;;;;;;4.47;2.15;;;;;;;20.46;82.16;100217.19;5088886;28;20043;-67
2023/07/13 06:00:44;;;;;;;6.00;2.42;;;;;;;20.58;81.30;100212.78;5084841;28;20395;-66
2023/07/13 06:03:09;;;;;;;4.85;1.80;;;;;;;20.65;79.57;100220.34;5080135;28;20076;-67
2023/07/13 06:05:38;;;;;;;4.53;3.58;;;;;;;20.68;78.42;100222.84;5067905;28;20024;-67
2023/07/13 06:08:05;;;;;;;4.75;2.10;;;;;;;20.68;77.80;100225.53;5049028;28;20029;-67
2023/07/13 06:10:36;;;;;;;4.07;1.67;;;;;;;20.69;78.08;100219.16;5049271;28;20060;-67
2023/07/13 06:13:03;;;;;;;5.75;2.47;;;;;;;20.76;77.55;100227.69;5065266;28;20069;-66
2023/07/13 06:15:28;;;;;;;7.10;2.13;;;;;;;20.83;76.94;100226.28;5062127;28;20451;-67
2023/07/13 06:17:54;;;;;;;5.32;2.60;;;;;;;20.95;76.08;100225.41;5067520;28;20032;-67
2023/07/13 06:20:19;;;;;;;7.18;2.60;;;;;;;21.02;75.59;100236.69;5051864;28;20025;-67
2023/07/13 06:22:44;;;;;;;4.85;1.95;;;;;;;21.06;74.95;100243.59;5067456;28;20094;-67
2023/07/13 06:25:10;;;;;;;7.07;2.60;;;;;;;21.17;75.36;100238.31;5065482;28;20050;-67
2023/07/13 06:27:36;;;;;;;8.63;2.72;;;;;;;21.18;74.64;100243.59;5057162;28;20728;-67
2023/07/13 06:30:01;;;;;;;5.05;1.80;;;;;;;21.27;73.85;100252.91;5048762;28;20040;-66
2023/07/13 06:32:27;;;;;;;4.82;2.00;;;;;;;21.48;72.86;100241.34;5054597;28;20032;-67
2023/07/13 06:34:52;;;;;;;8.73;1.83;;;;;;;21.71;71.90;100247.78;5066092;28;20039;-67
2023/07/13 06:37:18;;;;;;;3.70;1.65;;;;;;;21.87;71.65;100240.25;5064186;28;20024;-67
2023/07/13 06:39:43;;;;;;;6.90;1.95;;;;;;;22.08;70.90;100249.47;5065897;28;20039;-66
2023/07/13 06:42:09;;;;;;;4.55;1.70;;;;;;;22.20;69.44;100251.25;5065416;28;20506;-67
2023/07/13 06:44:34;;;;;;;3.85;2.35;;;;;;;22.40;69.47;100250.59;5049506;28;20116;-67
2023/07/13 06:47:00;;;;;;;4.25;1.40;;;;;;;22.52;67.41;100255.03;5051064;28;20039;-67
2023/07/13 06:49:25;;;;;;;6.53;1.88;;;;;;;22.46;67.57;100251.94;5060884;28;20020;-67
2023/07/13 06:51:51;;;;;;;2.88;1.42;;;;;;;22.62;66.81;100253.38;5068214;28;20031;-67
2023/07/13 06:54:16;;;;;;;4.07;1.60;;;;;;;22.76;66.61;100249.59;5052442;28;20025;-67
2023/07/13 06:56:42;;;;;;;4.10;1.70;;;;;;;22.98;67.29;100257.75;5055501;28;20028;-67
2023/07/13 06:59:07;;;;;;;4.90;1.80;;;;;;;23.18;66.58;100252.44;5055748;28;20063;-67
2023/07/13 07:01:32;;;;;;;3.17;1.52;;;;;;;23.36;66.34;100259.13;5049115;28;20032;-67
2023/07/13 07:03:58;;;;;;;3.33;1.42;;;;;;;23.60;65.25;100263.56;5073399;28;20452;-67
2023/07/13 07:06:23;;;;;;;4.55;1.30;;;;;;;23.70;62.35;100259.97;5085236;28;20039;-67
2023/07/13 07:08:50;;;;;;;3.58;1.30;;;;;;;23.78;61.33;100256.59;5087500;28;20135;-67
2023/07/13 07:11:25;;;;;;;2.63;1.25;;;;;;;23.99;60.73;100260.28;5087373;28;20020;-67
2023/07/13 07:13:52;;;;;;;3.38;1.20;;;;;;;24.03;59.88;100259.91;5086734;28;20055;-67
2023/07/13 07:16:18;;;;;;;3.58;1.30;;;;;;;24.23;60.32;100269.09;5087476;28;20466;-67
2023/07/13 07:18:45;;;;;;;3.67;1.52;;;;;;;24.30;58.34;100259.44;5070776;28;20029;-66
2023/07/13 07:21:10;;;;;;;2.97;1.60;;;;;;;24.32;57.31;100273.72;5067420;28;20089;-65
2023/07/13 07:23:36;;;;;;;4.82;1.35;;;;;;;24.62;57.74;100268.41;5071235;28;20040;-65
2023/07/13 07:26:01;;;;;;;3.50;1.35;;;;;;;24.91;57.80;100277.63;5077633;28;20027;-65
2023/07/13 07:28:28;;;;;;;2.28;1.20;;;;;;;25.20;56.06;100277.81;5087702;28;20031;-65
2023/07/13 07:30:56;;;;;;;4.00;1.52;;;;;;;25.36;55.41;100265.44;5081519;28;20700;-65
2023/07/13 07:33:21;;;;;;;4.05;1.08;;;;;;;25.14;54.70;100279.19;5086682;28;20032;-65
2023/07/13 07:35:47;;;;;;;3.13;1.27;;;;;;;25.34;53.53;100275.56;5075588;28;20056;-65
2023/07/13 07:38:12;;;;;;;2.28;1.40;;;;;;;25.64;52.55;100278.31;5078636;28;20522;-65
2023/07/13 07:40:40;;;;;;;2.55;1.10;;;;;;;25.88;53.57;100280.66;5067764;28;20033;-65
2023/07/13 07:43:06;;;;;;;4.13;1.40;;;;;;;26.13;52.31;100271.13;5067824;28;20029;-65
2023/07/13 07:45:31;;;;;;;3.25;1.20;;;;;;;26.45;51.27;100279.88;5087209;28;20028;-65
2023/07/13 07:47:58;;;;;;;3.67;1.30;;;;;;;26.79;50.75;100284.75;5088081;28;20027;-65
2023/07/13 07:50:25;;;;;;;4.15;1.20;;;;;;;27.08;51.55;100284.72;5088175;28;20738;-65
2023/07/13 07:52:50;;;;;;;4.90;1.20;;;;;;;27.45;49.98;100291.06;5087043;28;20052;-65
2023/07/13 07:55:15;;;;;;;3.38;1.20;;;;;;;27.77;48.37;100288.75;5086115;28;20063;-65
2023/07/13 07:57:41;;;;;;;4.55;1.42;;;;;;;27.96;47.96;100294.13;5087991;28;20032;-65
2023/07/13 08:00:07;;;;;;;6.00;1.20;;;;;;;28.08;46.80;100303.84;5083237;28;20024;-65
2023/07/13 08:02:32;;;;;;;2.10;1.20;;;;;;;28.20;46.09;100297.13;5084839;28;20035;-65
2023/07/13 08:04:58;;;;;;;3.03;1.13;;;;;;;28.53;45.74;100294.75;5087132;28;20030;-65
2023/07/13 08:07:23;;;;;;;1.92;1.33;;;;;;;28.80;45.35;100286.44;5067609;28;20508;-65
2023/07/13 08:09:52;;;;;;;3.22;1.05;;;;;;;29.22;46.42;100291.06;5065744;28;20142;-65
2023/07/13 08:12:17;;;;;;;3.45;1.02;;;;;;;29.49;44.01;100298.22;5075283;28;20025;-65
2023/07/13 08:14:43;;;;;;;4.22;1.20;;;;;;;29.47;42.80;100300.28;5072688;28;20043;-65
2023/07/13 08:17:08;;;;;;;3.17;1.27;;;;;;;29.51;43.26;100287.97;5066742;28;20028;-65
2023/07/13 08:19:34;;;;;;;2.45;1.00;;;;;;;29.64;43.03;100296.59;5066268;28;20017;-65
2023/07/13 08:21:59;;;;;;;6.90;1.23;;;;;;;29.70;43.26;100295.97;5067302;28;20035;-65
2023/07/13 08:24:25;;;;;;;4.65;1.17;;;;;;;29.79;41.65;100291.34;5067105;28;20099;-65
2023/07/13 08:26:52;;;;;;;4.22;1.20;;;;;;;29.88;40.67;100288.50;5066674;28;20040;-65
2023/07/13 08:29:17;;;;;;;6.28;1.20;;;;;;;29.98;41.30;100291.09;5067117;28;20357;-65
2023/07/13 08:31:43;;;;;;;2.60;1.10;;;;;;;29.87;41.07;100286.78;5067067;28;20016;-65
2023/07/13 08:34:08;;;;;;;1.40;0.90;;;;;;;30.06;42.67;100286.50;5067906;28;20113;-65
2023/07/13 08:36:34;;;;;;;3.58;1.10;;;;;;;30.29;41.22;100286.75;5063625;28;20446;-65
2023/07/13 08:38:59;;;;;;;3.63;1.20;;;;;;;30.62;42.03;100288.50;5069860;28;20028;-65
2023/07/13 08:41:24;;;;;;;5.40;1.63;;;;;;;30.59;40.79;100295.19;5070818;28;20031;-65
2023/07/13 08:43:55;;;;;;;2.53;1.02;;;;;;;30.69;38.51;100290.38;5071687;28;20054;-65
2023/07/13 08:46:42;;;;;;;4.22;1.40;;;;;;;30.49;39.78;100300.00;5070144;28;20077;-65
2023/07/13 08:49:17;;;;;;;2.42;1.00;;;;;;;30.73;36.99;100301.88;5071467;28;20020;-65
2023/07/13 08:51:47;;;;;;;4.13;0.90;;;;;;;30.63;37.73;100296.56;5069823;28;20035;-65
2023/07/13 08:54:21;;;;;;;2.13;1.00;;;;;;;30.96;37.70;100294.69;5070995;28;20162;-65
2023/07/13 08:56:52;;;;;;;3.58;1.13;;;;;;;30.87;36.96;100287.50;5079108;28;20388;-65
2023/07/13 08:59:21;;;;;;;2.85;0.80;;;;;;;30.09;36.76;100297.13;5069784;28;20027;-65
2023/07/13 09:02:10;;;;;;;2.83;1.08;;;;;;;30.27;38.53;100300.66;5066056;28;20028;-65
2023/07/13 09:04:53;;;;;;;2.40;0.70;;;;;;;30.75;36.33;100303.44;5066661;28;20246;-65
2023/07/13 09:07:25;;;;;;;4.18;0.70;;;;;;;30.67;35.16;100303.44;5083745;28;20395;-65
2023/07/13 09:10:24;;;;;;;1.90;0.88;;;;;;;30.99;34.73;100301.75;5088887;28;20344;-65
2023/07/13 09:13:34;;;;;;;1.42;0.80;;;;;;;31.40;35.96;100292.44;5088953;28;20046;-65
2023/07/13 09:16:01;;;;;;;4.35;0.80;;;;;;;31.57;33.95;100286.69;5045914;28;20040;-65
2023/07/13 09:18:37;;;;;;;2.72;1.02;;;;;;;31.58;36.48;100288.41;5088585;28;20475;-64
2023/07/13 09:21:21;;;;;;;1.73;0.80;;;;;;;31.02;35.80;100288.53;5082195;28;20729;-65
2023/07/13 09:23:47;;;;;;;2.90;1.67;;;;;;;30.92;37.15;100297.97;5073496;28;20031;-65
2023/07/13 09:26:19;;;;;;;3.22;0.95;;;;;;;31.17;38.28;100294.19;5090670;28;20042;-66
2023/07/13 09:28:48;;;;;;;4.68;1.90;;;;;;;31.58;36.95;100293.91;5091076;28;20562;-67
2023/07/13 09:31:36;;;;;;;2.08;0.80;;;;;;;31.61;36.48;100289.97;5076038;28;20025;-66
2023/07/13 09:34:02;;;;;;;2.30;0.70;;;;;;;31.96;35.28;100290.34;5083687;28;20032;-65
2023/07/13 09:36:32;;;;;;;1.55;1.00;;;;;;;32.13;35.10;100291.09;5083146;28;20090;-68
2023/07/13 09:39:13;;;;;;;4.45;1.60;;;;;;;32.42;36.69;100276.69;5080663;28;20028;-69
2023/07/13 09:41:57;;;;;;;3.15;1.27;;;;;;;32.86;34.97;100291.47;5070347;28;20021;-68
2023/07/13 09:44:33;;;;;;;4.00;1.13;;;;;;;33.28;35.03;100289.00;5088617;28;20020;-68
2023/07/13 09:46:58;;;;;;;3.85;0.95;;;;;;;33.55;34.06;100277.34;5076280;28;20367;-68
2023/07/13 09:49:29;;;;;;;1.98;0.90;;;;;;;33.48;34.69;100297.63;5084409;28;20024;-68
2023/07/13 09:52:07;;;;;;;3.83;0.90;;;;;;;32.36;31.65;100292.00;5066633;28;20631;-68
2023/07/13 09:54:36;;;;;;;2.50;1.15;;;;;;;32.26;34.28;100283.09;5088289;28;20032;-68
2023/07/13 09:57:03;;;;;;;1.73;0.80;;;;;;;32.30;34.23;100281.72;5082490;28;20024;-67
2023/07/13 09:59:31;;;;;;;3.10;0.80;;;;;;;32.59;34.48;100289.25;5079282;28;20036;-68
2023/07/13 10:01:57;;;;;;;4.05;0.90;;;;;;;32.84;34.87;100294.41;5072156;28;20024;-68
2023/07/13 10:04:30;;;;;;;4.25;0.90;;;;;;;32.99;33.28;100284.31;5075415;28;20054;-68
2023/07/13 10:07:08;;;;;;;2.97;1.00;;;;;;;32.83;34.04;100289.09;5084124;28;20054;-67
2023/07/13 10:09:33;;;;;;;2.60;0.85;;;;;;;32.62;33.26;100283.41;5070922;28;20520;-68
2023/07/13 10:11:59;;;;;;;2.10;0.73;;;;;;;32.86;32.45;100281.31;5087600;28;20020;-68
2023/07/13 10:14:25;;;;;;;3.55;0.70;;;;;;;32.63;31.52;100290.63;5085582;28;20033;-67
2023/07/13 10:17:02;;;;;;;4.03;1.00;;;;;;;32.84;33.41;100288.91;5087362;28;20552;-69
2023/07/13 10:19:32;;;;;;;2.05;0.80;;;;;;;33.27;32.66;100285.41;5077235;28;20024;-68
2023/07/13 10:22:10;;;;;;;3.35;0.90;;;;;;;33.39;31.44;100283.88;5078314;28;20028;-68
2023/07/13 10:24:38;;;;;;;2.25;1.25;;;;;;;33.46;31.54;100272.13;5079134;28;20028;-67
2023/07/13 10:27:25;;;;;;;2.35;0.73;;;;;;;33.54;31.48;100269.28;5086995;28;20048;-68
2023/07/13 10:30:02;;;;;;;3.55;1.05;;;;;;;34.04;31.15;100267.41;5084987;28;20028;-68
2023/07/13 10:32:27;;;;;;;1.13;0.70;;;;;;;34.20;29.22;100266.34;5071238;28;20043;-69
2023/07/13 10:34:55;;;;;;;4.72;0.90;;;;;;;34.41;30.27;100269.16;5089136;28;20031;-68
2023/07/13 10:37:24;;;;;;;1.52;0.65;;;;;;;33.90;31.36;100256.38;5079909;28;20076;-67
2023/07/13 10:39:54;;;;;;;2.85;0.73;;;;;;;33.38;31.15;100288.75;5078955;28;20107;-67
2023/07/13 10:42:42;;;;;;;1.85;0.73;;;;;;;33.11;32.26;100280.03;5069579;28;20036;-68
2023/07/13 10:45:19;;;;;;;2.30;0.68;;;;;;;32.28;32.76;100277.41;5084237;28;20063;-67
2023/07/13 10:47:46;;;;;;;1.98;0.93;;;;;;;31.98;34.71;100288.25;5074038;28;20067;-68
2023/07/13 10:50:20;;;;;;;4.03;1.17;;;;;;;31.83;35.02;100286.41;5079437;28;20048;-68
2023/07/13 10:52:51;;;;;;;5.13;1.75;;;;;;;31.29;33.97;100290.00;5084997;28;20115;-67
2023/07/13 10:55:54;;;;;;;6.60;2.17;;;;;;;30.84;36.20;100272.22;5086236;28;20479;-67
2023/07/13 10:58:27;;;;;;;;;;;;;;;31.46;34.18;100284.34;5074974;28;20710;-67
2023/07/13 11:00:57;;;;;;;3.10;1.13;;;;;;;32.07;33.71;100278.94;5080286;28;20023;-67
2023/07/13 11:03:23;;;;;;;1.77;0.88;;;;;;;32.69;33.79;100265.94;5083039;28;20051;-68
2023/07/13 11:05:51;;;;;;;4.50;1.00;;;;;;;33.06;32.05;100273.41;5068323;28;20036;-67
2023/07/13 11:08:20;;;;;;;2.25;0.90;;;;;;;33.21;32.43;100277.88;5074119;28;20079;-68
2023/07/13 11:10:53;;;;;;;1.05;0.60;;;;;;;33.24;31.48;100269.25;5084131;28;20024;-67
2023/07/13 11:13:37;;;;;;;;;;;;;;;33.94;31.31;100260.50;5080708;28;20047;-67
2023/07/13 11:16:18;;;;;;;3.38;1.00;;;;;;;34.24;30.00;100251.06;5080446;28;19912;-68
2023/07/13 11:19:03;;;;;;;3.20;0.70;;;;;;;34.87;29.96;100259.38;5077276;28;20051;-68
2023/07/13 11:21:30;;;;;;;1.70;0.70;;;;;;;34.91;30.35;100259.88;5076398;28;20031;-69
2023/07/13 11:24:13;;;;;;;5.05;0.77;;;;;;;34.31;31.28;100257.53;5078864;28;20056;-68
2023/07/13 11:26:50;;;;;;;3.45;0.80;;;;;;;33.54;32.31;100261.00;5077767;28;20034;-68
2023/07/13 11:29:45;;;;;;;2.65;0.80;;;;;;;33.08;32.43;100269.38;5079468;28;20035;-68
2023/07/13 11:32:31;;;;;;;2.25;0.88;;;;;;;31.94;32.53;100266.81;5066398;28;20048;-68